sensor_id;sensor_type;location;lat;lon;timestamp;P1;durP1;ratioP1;P2;durP2;ratioP2
82159;SDS011;71734;50.876;7.372;2024-01-15T00:01:49;19.08;;;7.13;;
82159;SDS011;71734;50.876;7.372;2024-01-15T00:04:15;20.63;;;7.28;;
82159;SDS011;71734;50.876;7.372;2024-01-15T00:06:42;19.88;;;7.53;;
82159;SDS011;71734;50.876;7.372;2024-01-15T00:09:10;17.67;;;6.32;;
82159;SDS011;71734;50.876;7.372;2024-01-15T00:11:37;20.40;;;7.50;;
82159;SDS011;71734;50.876;7.372;2024-01-15T00:14:03;20.23;;;7.07;;
82159;SDS011;71734;50.876;7.372;2024-01-15T00:16:30;19.95;;;6.70;;
82159;SDS011;71734;50.876;7.372;2024-01-15T00:18:56;20.45;;;7.10;;
82159;SDS011;71734;50.876;7.372;2024-01-15T00:21:23;19.00;;;6.85;;
82159;SDS011;71734;50.876;7.372;2024-01-15T00:23:49;21.35;;;7.22;;
82159;SDS011;71734;50.876;7.372;2024-01-15T00:26:17;20.30;;;6.95;;
82159;SDS011;71734;50.876;7.372;2024-01-15T00:28:44;20.95;;;7.63;;
82159;SDS011;71734;50.876;7.372;2024-01-15T00:31:10;17.77;;;6.30;;
82159;SDS011;71734;50.876;7.372;2024-01-15T00:33:37;21.50;;;7.10;;
82159;SDS011;71734;50.876;7.372;2024-01-15T00:36:03;20.52;;;7.75;;
82159;SDS011;71734;50.876;7.372;2024-01-15T00:38:30;20.83;;;7.68;;
82159;SDS011;71734;50.876;7.372;2024-01-15T00:40:57;20.52;;;7.80;;
82159;SDS011;71734;50.876;7.372;2024-01-15T00:43:25;21.83;;;7.75;;
82159;SDS011;71734;50.876;7.372;2024-01-15T00:45:51;20.10;;;7.85;;
82159;SDS011;71734;50.876;7.372;2024-01-15T00:48:18;22.15;;;7.30;;
82159;SDS011;71734;50.876;7.372;2024-01-15T00:50:44;22.80;;;7.70;;
82159;SDS011;71734;50.876;7.372;2024-01-15T00:53:11;20.02;;;8.00;;
82159;SDS011;71734;50.876;7.372;2024-01-15T00:55:46;26.27;;;8.25;;
82159;SDS011;71734;50.876;7.372;2024-01-15T00:58:12;23.90;;;8.05;;
82159;SDS011;71734;50.876;7.372;2024-01-15T01:00:40;23.33;;;8.10;;
82159;SDS011;71734;50.876;7.372;2024-01-15T01:03:07;23.70;;;8.13;;
82159;SDS011;71734;50.876;7.372;2024-01-15T01:05:36;23.33;;;8.23;;
82159;SDS011;71734;50.876;7.372;2024-01-15T01:08:02;20.67;;;7.95;;
82159;SDS011;71734;50.876;7.372;2024-01-15T01:10:29;23.45;;;7.82;;
82159;SDS011;71734;50.876;7.372;2024-01-15T01:12:56;23.25;;;8.23;;
82159;SDS011;71734;50.876;7.372;2024-01-15T01:15:22;21.50;;;8.50;;
82159;SDS011;71734;50.876;7.372;2024-01-15T01:17:51;21.98;;;8.68;;
82159;SDS011;71734;50.876;7.372;2024-01-15T01:20:17;20.95;;;7.60;;
82159;SDS011;71734;50.876;7.372;2024-01-15T01:22:44;25.27;;;9.07;;
82159;SDS011;71734;50.876;7.372;2024-01-15T01:25:10;25.35;;;8.70;;
82159;SDS011;71734;50.876;7.372;2024-01-15T01:27:45;24.42;;;9.13;;
82159;SDS011;71734;50.876;7.372;2024-01-15T01:30:11;23.17;;;8.80;;
82159;SDS011;71734;50.876;7.372;2024-01-15T01:32:38;24.38;;;9.63;;
82159;SDS011;71734;50.876;7.372;2024-01-15T01:35:06;24.20;;;9.43;;
82159;SDS011;71734;50.876;7.372;2024-01-15T01:37:32;25.30;;;9.32;;
82159;SDS011;71734;50.876;7.372;2024-01-15T01:39:59;24.80;;;9.43;;
82159;SDS011;71734;50.876;7.372;2024-01-15T01:42:26;23.58;;;8.25;;
82159;SDS011;71734;50.876;7.372;2024-01-15T01:44:52;24.73;;;9.80;;
82159;SDS011;71734;50.876;7.372;2024-01-15T01:47:19;24.70;;;9.43;;
82159;SDS011;71734;50.876;7.372;2024-01-15T01:49:45;24.52;;;8.80;;
82159;SDS011;71734;50.876;7.372;2024-01-15T01:52:14;22.38;;;8.70;;
82159;SDS011;71734;50.876;7.372;2024-01-15T01:54:41;24.05;;;9.02;;
82159;SDS011;71734;50.876;7.372;2024-01-15T01:57:07;22.35;;;8.30;;
82159;SDS011;71734;50.876;7.372;2024-01-15T01:59:34;25.80;;;9.15;;
82159;SDS011;71734;50.876;7.372;2024-01-15T02:02:02;22.60;;;8.90;;
82159;SDS011;71734;50.876;7.372;2024-01-15T02:04:29;28.08;;;9.13;;
82159;SDS011;71734;50.876;7.372;2024-01-15T02:06:58;23.05;;;8.55;;
82159;SDS011;71734;50.876;7.372;2024-01-15T02:09:26;27.48;;;8.93;;
82159;SDS011;71734;50.876;7.372;2024-01-15T02:11:53;22.30;;;8.30;;
82159;SDS011;71734;50.876;7.372;2024-01-15T02:14:20;22.08;;;9.00;;
82159;SDS011;71734;50.876;7.372;2024-01-15T02:16:46;24.13;;;9.25;;
82159;SDS011;71734;50.876;7.372;2024-01-15T02:19:14;26.83;;;9.48;;
82159;SDS011;71734;50.876;7.372;2024-01-15T02:21:41;24.85;;;9.48;;
82159;SDS011;71734;50.876;7.372;2024-01-15T02:24:09;26.35;;;9.35;;
82159;SDS011;71734;50.876;7.372;2024-01-15T02:26:36;26.02;;;9.43;;
82159;SDS011;71734;50.876;7.372;2024-01-15T02:29:03;25.77;;;9.63;;
82159;SDS011;71734;50.876;7.372;2024-01-15T02:31:31;25.45;;;9.38;;
82159;SDS011;71734;50.876;7.372;2024-01-15T02:33:57;24.77;;;9.05;;
82159;SDS011;71734;50.876;7.372;2024-01-15T02:36:24;27.08;;;9.98;;
82159;SDS011;71734;50.876;7.372;2024-01-15T02:38:50;26.77;;;10.20;;
82159;SDS011;71734;50.876;7.372;2024-01-15T02:41:18;24.33;;;9.32;;
82159;SDS011;71734;50.876;7.372;2024-01-15T02:43:45;24.27;;;9.80;;
82159;SDS011;71734;50.876;7.372;2024-01-15T02:46:11;28.92;;;10.45;;
82159;SDS011;71734;50.876;7.372;2024-01-15T02:48:38;27.83;;;9.60;;
82159;SDS011;71734;50.876;7.372;2024-01-15T02:51:04;28.25;;;10.07;;
82159;SDS011;71734;50.876;7.372;2024-01-15T02:53:31;25.35;;;9.43;;
82159;SDS011;71734;50.876;7.372;2024-01-15T02:55:58;28.00;;;9.98;;
82159;SDS011;71734;50.876;7.372;2024-01-15T02:58:26;27.02;;;8.93;;
82159;SDS011;71734;50.876;7.372;2024-01-15T03:00:52;24.58;;;9.57;;
82159;SDS011;71734;50.876;7.372;2024-01-15T03:03:18;22.90;;;9.80;;
82159;SDS011;71734;50.876;7.372;2024-01-15T03:05:45;25.33;;;10.10;;
82159;SDS011;71734;50.876;7.372;2024-01-15T03:08:12;26.77;;;9.50;;
82159;SDS011;71734;50.876;7.372;2024-01-15T03:10:38;26.35;;;8.95;;
82159;SDS011;71734;50.876;7.372;2024-01-15T03:13:05;28.13;;;9.77;;
82159;SDS011;71734;50.876;7.372;2024-01-15T03:15:33;24.40;;;9.07;;
82159;SDS011;71734;50.876;7.372;2024-01-15T03:17:59;25.65;;;9.50;;
82159;SDS011;71734;50.876;7.372;2024-01-15T03:20:26;25.55;;;9.15;;
82159;SDS011;71734;50.876;7.372;2024-01-15T03:22:52;23.17;;;9.00;;
82159;SDS011;71734;50.876;7.372;2024-01-15T03:25:19;26.52;;;9.68;;
82159;SDS011;71734;50.876;7.372;2024-01-15T03:27:45;22.63;;;9.48;;
82159;SDS011;71734;50.876;7.372;2024-01-15T03:30:12;25.48;;;9.07;;
82159;SDS011;71734;50.876;7.372;2024-01-15T03:32:41;27.60;;;9.50;;
82159;SDS011;71734;50.876;7.372;2024-01-15T03:35:07;24.73;;;9.65;;
82159;SDS011;71734;50.876;7.372;2024-01-15T03:37:34;21.30;;;8.98;;
82159;SDS011;71734;50.876;7.372;2024-01-15T03:40:01;22.35;;;8.85;;
82159;SDS011;71734;50.876;7.372;2024-01-15T03:42:28;25.42;;;9.50;;
82159;SDS011;71734;50.876;7.372;2024-01-15T03:44:54;22.70;;;9.57;;
82159;SDS011;71734;50.876;7.372;2024-01-15T03:47:21;22.23;;;8.57;;
82159;SDS011;71734;50.876;7.372;2024-01-15T03:49:48;22.23;;;9.23;;
82159;SDS011;71734;50.876;7.372;2024-01-15T03:52:15;24.02;;;9.20;;
82159;SDS011;71734;50.876;7.372;2024-01-15T03:54:41;24.98;;;9.05;;
82159;SDS011;71734;50.876;7.372;2024-01-15T03:57:08;24.80;;;8.65;;
82159;SDS011;71734;50.876;7.372;2024-01-15T03:59:34;24.85;;;8.73;;
82159;SDS011;71734;50.876;7.372;2024-01-15T04:02:01;21.67;;;8.45;;
82159;SDS011;71734;50.876;7.372;2024-01-15T04:04:29;23.73;;;8.43;;
82159;SDS011;71734;50.876;7.372;2024-01-15T04:06:56;25.10;;;9.02;;
82159;SDS011;71734;50.876;7.372;2024-01-15T04:09:31;20.88;;;8.48;;
82159;SDS011;71734;50.876;7.372;2024-01-15T04:11:58;23.30;;;8.60;;
82159;SDS011;71734;50.876;7.372;2024-01-15T04:14:24;24.00;;;8.85;;
82159;SDS011;71734;50.876;7.372;2024-01-15T04:16:51;23.90;;;9.25;;
82159;SDS011;71734;50.876;7.372;2024-01-15T04:19:17;21.08;;;8.63;;
82159;SDS011;71734;50.876;7.372;2024-01-15T04:21:44;21.70;;;8.73;;
82159;SDS011;71734;50.876;7.372;2024-01-15T04:24:12;21.02;;;8.20;;
82159;SDS011;71734;50.876;7.372;2024-01-15T04:26:39;21.00;;;8.82;;
82159;SDS011;71734;50.876;7.372;2024-01-15T04:29:05;21.40;;;8.30;;
82159;SDS011;71734;50.876;7.372;2024-01-15T04:31:32;24.77;;;9.15;;
82159;SDS011;71734;50.876;7.372;2024-01-15T04:33:58;23.20;;;9.40;;
82159;SDS011;71734;50.876;7.372;2024-01-15T04:36:25;22.30;;;8.98;;
82159;SDS011;71734;50.876;7.372;2024-01-15T04:38:51;25.63;;;9.35;;
82159;SDS011;71734;50.876;7.372;2024-01-15T04:41:19;23.45;;;9.70;;
82159;SDS011;71734;50.876;7.372;2024-01-15T04:43:46;22.35;;;9.48;;
82159;SDS011;71734;50.876;7.372;2024-01-15T04:46:12;24.50;;;8.90;;
82159;SDS011;71734;50.876;7.372;2024-01-15T04:48:40;23.45;;;8.95;;
82159;SDS011;71734;50.876;7.372;2024-01-15T04:51:08;21.70;;;8.40;;
82159;SDS011;71734;50.876;7.372;2024-01-15T04:53:35;23.08;;;8.35;;
82159;SDS011;71734;50.876;7.372;2024-01-15T04:56:02;18.90;;;7.45;;
82159;SDS011;71734;50.876;7.372;2024-01-15T04:58:30;20.77;;;8.38;;
82159;SDS011;71734;50.876;7.372;2024-01-15T05:00:57;21.85;;;8.73;;
82159;SDS011;71734;50.876;7.372;2024-01-15T05:03:23;24.25;;;8.55;;
82159;SDS011;71734;50.876;7.372;2024-01-15T05:05:50;22.35;;;8.50;;
82159;SDS011;71734;50.876;7.372;2024-01-15T05:08:16;24.05;;;8.98;;
82159;SDS011;71734;50.876;7.372;2024-01-15T05:10:43;20.20;;;8.00;;
82159;SDS011;71734;50.876;7.372;2024-01-15T05:13:10;20.85;;;8.27;;
82159;SDS011;71734;50.876;7.372;2024-01-15T05:18:08;24.13;;;8.88;;
82159;SDS011;71734;50.876;7.372;2024-01-15T05:20:35;23.88;;;8.75;;
82159;SDS011;71734;50.876;7.372;2024-01-15T05:23:01;25.70;;;8.98;;
82159;SDS011;71734;50.876;7.372;2024-01-15T05:25:28;23.63;;;8.70;;
82159;SDS011;71734;50.876;7.372;2024-01-15T05:27:54;23.50;;;8.90;;
82159;SDS011;71734;50.876;7.372;2024-01-15T05:30:21;21.30;;;8.00;;
82159;SDS011;71734;50.876;7.372;2024-01-15T05:32:55;19.48;;;8.07;;
82159;SDS011;71734;50.876;7.372;2024-01-15T05:35:22;19.38;;;7.85;;
82159;SDS011;71734;50.876;7.372;2024-01-15T05:37:49;21.42;;;8.18;;
82159;SDS011;71734;50.876;7.372;2024-01-15T05:40:15;20.63;;;8.35;;
82159;SDS011;71734;50.876;7.372;2024-01-15T05:42:42;21.90;;;8.27;;
82159;SDS011;71734;50.876;7.372;2024-01-15T05:45:08;22.95;;;8.50;;
82159;SDS011;71734;50.876;7.372;2024-01-15T05:47:36;18.42;;;7.80;;
82159;SDS011;71734;50.876;7.372;2024-01-15T05:50:04;19.48;;;8.15;;
82159;SDS011;71734;50.876;7.372;2024-01-15T05:52:31;17.25;;;7.25;;
82159;SDS011;71734;50.876;7.372;2024-01-15T05:54:58;23.13;;;8.25;;
82159;SDS011;71734;50.876;7.372;2024-01-15T05:57:25;20.85;;;7.55;;
82159;SDS011;71734;50.876;7.372;2024-01-15T05:59:51;19.10;;;8.07;;
82159;SDS011;71734;50.876;7.372;2024-01-15T06:02:20;18.08;;;7.50;;
82159;SDS011;71734;50.876;7.372;2024-01-15T06:04:46;16.70;;;6.82;;
82159;SDS011;71734;50.876;7.372;2024-01-15T06:07:14;17.17;;;7.30;;
82159;SDS011;71734;50.876;7.372;2024-01-15T06:09:41;17.70;;;7.03;;
82159;SDS011;71734;50.876;7.372;2024-01-15T06:12:07;20.30;;;7.82;;
82159;SDS011;71734;50.876;7.372;2024-01-15T06:14:34;16.75;;;7.15;;
82159;SDS011;71734;50.876;7.372;2024-01-15T06:17:01;20.05;;;7.88;;
82159;SDS011;71734;50.876;7.372;2024-01-15T06:19:27;20.23;;;7.13;;
82159;SDS011;71734;50.876;7.372;2024-01-15T06:21:54;19.08;;;6.50;;
82159;SDS011;71734;50.876;7.372;2024-01-15T06:24:22;18.88;;;6.65;;
82159;SDS011;71734;50.876;7.372;2024-01-15T06:26:49;17.17;;;6.70;;
82159;SDS011;71734;50.876;7.372;2024-01-15T06:29:15;16.90;;;7.13;;
82159;SDS011;71734;50.876;7.372;2024-01-15T06:31:42;15.80;;;6.85;;
82159;SDS011;71734;50.876;7.372;2024-01-15T06:34:09;17.00;;;6.22;;
82159;SDS011;71734;50.876;7.372;2024-01-15T06:36:36;16.60;;;6.30;;
82159;SDS011;71734;50.876;7.372;2024-01-15T06:39:12;19.35;;;6.80;;
82159;SDS011;71734;50.876;7.372;2024-01-15T06:41:41;17.48;;;6.72;;
82159;SDS011;71734;50.876;7.372;2024-01-15T06:44:09;16.95;;;6.70;;
82159;SDS011;71734;50.876;7.372;2024-01-15T06:46:36;18.00;;;6.95;;
82159;SDS011;71734;50.876;7.372;2024-01-15T06:49:03;16.83;;;6.55;;
82159;SDS011;71734;50.876;7.372;2024-01-15T06:51:29;21.25;;;7.28;;
82159;SDS011;71734;50.876;7.372;2024-01-15T06:54:12;18.92;;;7.38;;
82159;SDS011;71734;50.876;7.372;2024-01-15T06:56:40;17.17;;;7.05;;
82159;SDS011;71734;50.876;7.372;2024-01-15T06:59:07;18.98;;;7.22;;
82159;SDS011;71734;50.876;7.372;2024-01-15T07:01:33;18.58;;;7.35;;
82159;SDS011;71734;50.876;7.372;2024-01-15T07:04:00;19.58;;;7.22;;
82159;SDS011;71734;50.876;7.372;2024-01-15T07:06:26;16.85;;;7.13;;
82159;SDS011;71734;50.876;7.372;2024-01-15T07:08:53;21.10;;;7.47;;
82159;SDS011;71734;50.876;7.372;2024-01-15T07:11:19;20.20;;;8.00;;
82159;SDS011;71734;50.876;7.372;2024-01-15T07:13:47;15.95;;;7.00;;
82159;SDS011;71734;50.876;7.372;2024-01-15T07:16:14;19.27;;;6.70;;
82159;SDS011;71734;50.876;7.372;2024-01-15T07:18:41;16.45;;;6.68;;
82159;SDS011;71734;50.876;7.372;2024-01-15T07:21:07;17.70;;;6.85;;
82159;SDS011;71734;50.876;7.372;2024-01-15T07:23:34;20.15;;;6.85;;
82159;SDS011;71734;50.876;7.372;2024-01-15T07:26:00;18.67;;;6.82;;
82159;SDS011;71734;50.876;7.372;2024-01-15T07:28:28;18.85;;;7.22;;
82159;SDS011;71734;50.876;7.372;2024-01-15T07:30:57;15.52;;;6.57;;
82159;SDS011;71734;50.876;7.372;2024-01-15T07:33:23;18.08;;;7.47;;
82159;SDS011;71734;50.876;7.372;2024-01-15T07:35:51;20.05;;;8.10;;
82159;SDS011;71734;50.876;7.372;2024-01-15T07:38:17;18.85;;;7.43;;
82159;SDS011;71734;50.876;7.372;2024-01-15T07:40:44;17.40;;;7.35;;
82159;SDS011;71734;50.876;7.372;2024-01-15T07:43:30;21.42;;;7.25;;
82159;SDS011;71734;50.876;7.372;2024-01-15T07:45:58;17.50;;;7.28;;
82159;SDS011;71734;50.876;7.372;2024-01-15T07:48:25;18.50;;;6.60;;
82159;SDS011;71734;50.876;7.372;2024-01-15T07:50:51;21.15;;;7.75;;
82159;SDS011;71734;50.876;7.372;2024-01-15T07:53:18;17.40;;;7.13;;
82159;SDS011;71734;50.876;7.372;2024-01-15T07:55:44;19.35;;;7.30;;
82159;SDS011;71734;50.876;7.372;2024-01-15T07:58:11;18.70;;;7.10;;
82159;SDS011;71734;50.876;7.372;2024-01-15T08:00:37;18.52;;;6.53;;
82159;SDS011;71734;50.876;7.372;2024-01-15T08:03:06;20.38;;;7.13;;
82159;SDS011;71734;50.876;7.372;2024-01-15T08:05:32;18.50;;;7.72;;
82159;SDS011;71734;50.876;7.372;2024-01-15T08:08:02;19.05;;;6.75;;
82159;SDS011;71734;50.876;7.372;2024-01-15T08:10:28;17.20;;;6.72;;
82159;SDS011;71734;50.876;7.372;2024-01-15T08:12:55;18.75;;;7.38;;
82159;SDS011;71734;50.876;7.372;2024-01-15T08:15:21;17.00;;;7.38;;
82159;SDS011;71734;50.876;7.372;2024-01-15T08:17:48;19.13;;;7.85;;
82159;SDS011;71734;50.876;7.372;2024-01-15T08:20:17;19.70;;;7.32;;
82159;SDS011;71734;50.876;7.372;2024-01-15T08:22:43;17.95;;;7.05;;
82159;SDS011;71734;50.876;7.372;2024-01-15T08:25:10;19.52;;;7.25;;
82159;SDS011;71734;50.876;7.372;2024-01-15T08:27:38;20.33;;;8.25;;
82159;SDS011;71734;50.876;7.372;2024-01-15T08:30:06;21.48;;;7.80;;
82159;SDS011;71734;50.876;7.372;2024-01-15T08:32:33;22.15;;;6.72;;
82159;SDS011;71734;50.876;7.372;2024-01-15T08:35:02;19.52;;;7.95;;
82159;SDS011;71734;50.876;7.372;2024-01-15T08:37:30;19.88;;;6.97;;
82159;SDS011;71734;50.876;7.372;2024-01-15T08:39:57;19.48;;;7.18;;
82159;SDS011;71734;50.876;7.372;2024-01-15T08:42:23;19.45;;;7.82;;
82159;SDS011;71734;50.876;7.372;2024-01-15T08:44:50;20.30;;;7.03;;
82159;SDS011;71734;50.876;7.372;2024-01-15T08:47:17;17.30;;;6.72;;
82159;SDS011;71734;50.876;7.372;2024-01-15T08:49:43;17.65;;;6.95;;
82159;SDS011;71734;50.876;7.372;2024-01-15T08:52:11;21.00;;;7.50;;
82159;SDS011;71734;50.876;7.372;2024-01-15T08:54:40;23.05;;;6.95;;
82159;SDS011;71734;50.876;7.372;2024-01-15T08:57:06;19.00;;;7.50;;
82159;SDS011;71734;50.876;7.372;2024-01-15T08:59:33;17.52;;;6.57;;
82159;SDS011;71734;50.876;7.372;2024-01-15T09:01:59;18.60;;;7.15;;
82159;SDS011;71734;50.876;7.372;2024-01-15T09:04:32;16.20;;;6.30;;
82159;SDS011;71734;50.876;7.372;2024-01-15T09:06:58;20.23;;;7.03;;
82159;SDS011;71734;50.876;7.372;2024-01-15T09:09:25;16.48;;;5.90;;
82159;SDS011;71734;50.876;7.372;2024-01-15T09:11:55;18.63;;;7.20;;
82159;SDS011;71734;50.876;7.372;2024-01-15T09:16:52;18.27;;;6.00;;
82159;SDS011;71734;50.876;7.372;2024-01-15T09:19:19;15.70;;;6.32;;
82159;SDS011;71734;50.876;7.372;2024-01-15T09:21:45;16.05;;;6.38;;
82159;SDS011;71734;50.876;7.372;2024-01-15T09:24:15;18.48;;;7.05;;
82159;SDS011;71734;50.876;7.372;2024-01-15T09:26:42;17.63;;;6.30;;
82159;SDS011;71734;50.876;7.372;2024-01-15T09:29:10;16.20;;;6.15;;
82159;SDS011;71734;50.876;7.372;2024-01-15T09:31:36;17.67;;;6.80;;
82159;SDS011;71734;50.876;7.372;2024-01-15T09:34:03;16.48;;;6.65;;
82159;SDS011;71734;50.876;7.372;2024-01-15T09:36:29;19.95;;;6.80;;
82159;SDS011;71734;50.876;7.372;2024-01-15T09:38:56;19.63;;;7.47;;
82159;SDS011;71734;50.876;7.372;2024-01-15T09:41:23;18.58;;;6.95;;
82159;SDS011;71734;50.876;7.372;2024-01-15T09:43:50;20.67;;;7.75;;
82159;SDS011;71734;50.876;7.372;2024-01-15T09:46:19;18.67;;;6.25;;
82159;SDS011;71734;50.876;7.372;2024-01-15T09:48:46;21.48;;;7.40;;
82159;SDS011;71734;50.876;7.372;2024-01-15T09:51:13;20.80;;;7.07;;
82159;SDS011;71734;50.876;7.372;2024-01-15T09:53:46;21.10;;;7.05;;
82159;SDS011;71734;50.876;7.372;2024-01-15T09:56:14;21.20;;;7.10;;
82159;SDS011;71734;50.876;7.372;2024-01-15T10:01:36;17.67;;;6.70;;
82159;SDS011;71734;50.876;7.372;2024-01-15T10:04:23;17.27;;;5.95;;
82159;SDS011;71734;50.876;7.372;2024-01-15T10:06:50;16.20;;;6.80;;
82159;SDS011;71734;50.876;7.372;2024-01-15T10:09:17;16.17;;;6.30;;
82159;SDS011;71734;50.876;7.372;2024-01-15T10:11:44;16.05;;;5.88;;
82159;SDS011;71734;50.876;7.372;2024-01-15T10:14:11;15.07;;;5.78;;
82159;SDS011;71734;50.876;7.372;2024-01-15T10:16:40;14.07;;;5.97;;
82159;SDS011;71734;50.876;7.372;2024-01-15T10:19:07;13.68;;;5.55;;
82159;SDS011;71734;50.876;7.372;2024-01-15T10:21:33;13.43;;;5.38;;
82159;SDS011;71734;50.876;7.372;2024-01-15T10:24:01;14.05;;;5.60;;
82159;SDS011;71734;50.876;7.372;2024-01-15T10:26:28;13.07;;;5.03;;
82159;SDS011;71734;50.876;7.372;2024-01-15T10:28:55;10.45;;;4.18;;
82159;SDS011;71734;50.876;7.372;2024-01-15T10:31:22;10.63;;;4.70;;
82159;SDS011;71734;50.876;7.372;2024-01-15T10:33:51;11.45;;;4.53;;
82159;SDS011;71734;50.876;7.372;2024-01-15T10:36:17;10.25;;;4.57;;
82159;SDS011;71734;50.876;7.372;2024-01-15T10:38:45;9.27;;;4.20;;
82159;SDS011;71734;50.876;7.372;2024-01-15T10:41:12;11.70;;;4.32;;
82159;SDS011;71734;50.876;7.372;2024-01-15T10:43:46;10.55;;;4.35;;
82159;SDS011;71734;50.876;7.372;2024-01-15T10:46:17;9.13;;;4.15;;
82159;SDS011;71734;50.876;7.372;2024-01-15T10:48:45;10.98;;;4.18;;
82159;SDS011;71734;50.876;7.372;2024-01-15T10:51:13;8.93;;;3.75;;
82159;SDS011;71734;50.876;7.372;2024-01-15T10:53:50;9.88;;;3.88;;
82159;SDS011;71734;50.876;7.372;2024-01-15T10:56:18;9.15;;;4.20;;
82159;SDS011;71734;50.876;7.372;2024-01-15T10:58:46;9.30;;;3.95;;
82159;SDS011;71734;50.876;7.372;2024-01-15T11:01:13;9.25;;;4.22;;
82159;SDS011;71734;50.876;7.372;2024-01-15T11:03:42;9.40;;;3.90;;
82159;SDS011;71734;50.876;7.372;2024-01-15T11:09:31;9.27;;;3.30;;
82159;SDS011;71734;50.876;7.372;2024-01-15T11:18:11;7.85;;;3.10;;
82159;SDS011;71734;50.876;7.372;2024-01-15T11:24:33;8.05;;;3.35;;
82159;SDS011;71734;50.876;7.372;2024-01-15T11:27:17;7.68;;;3.00;;
82159;SDS011;71734;50.876;7.372;2024-01-15T11:36:58;7.47;;;3.15;;
82159;SDS011;71734;50.876;7.372;2024-01-15T11:39:40;7.80;;;3.08;;
82159;SDS011;71734;50.876;7.372;2024-01-15T11:42:12;7.78;;;2.83;;
82159;SDS011;71734;50.876;7.372;2024-01-15T11:45:01;7.18;;;2.88;;
82159;SDS011;71734;50.876;7.372;2024-01-15T11:47:46;6.55;;;2.83;;
82159;SDS011;71734;50.876;7.372;2024-01-15T11:50:49;8.68;;;3.13;;
82159;SDS011;71734;50.876;7.372;2024-01-15T11:59:16;7.45;;;2.80;;
82159;SDS011;71734;50.876;7.372;2024-01-15T12:04:59;6.38;;;2.72;;
82159;SDS011;71734;50.876;7.372;2024-01-15T12:07:26;7.15;;;2.80;;
82159;SDS011;71734;50.876;7.372;2024-01-15T12:10:12;7.50;;;2.38;;
82159;SDS011;71734;50.876;7.372;2024-01-15T12:16:22;7.18;;;2.83;;
82159;SDS011;71734;50.876;7.372;2024-01-15T12:50:59;10.40;;;4.72;;
82159;SDS011;71734;50.876;7.372;2024-01-15T12:53:26;9.90;;;4.47;;
82159;SDS011;71734;50.876;7.372;2024-01-15T12:55:52;10.30;;;4.60;;
82159;SDS011;71734;50.876;7.372;2024-01-15T12:58:33;9.95;;;4.63;;
82159;SDS011;71734;50.876;7.372;2024-01-15T13:01:03;10.20;;;4.80;;
82159;SDS011;71734;50.876;7.372;2024-01-15T13:03:32;10.25;;;4.40;;
82159;SDS011;71734;50.876;7.372;2024-01-15T13:06:00;11.30;;;4.75;;
82159;SDS011;71734;50.876;7.372;2024-01-15T13:08:26;10.40;;;4.60;;
82159;SDS011;71734;50.876;7.372;2024-01-15T13:10:54;10.50;;;4.97;;
82159;SDS011;71734;50.876;7.372;2024-01-15T13:13:23;13.02;;;5.28;;
82159;SDS011;71734;50.876;7.372;2024-01-15T13:15:49;10.57;;;5.18;;
82159;SDS011;71734;50.876;7.372;2024-01-15T13:18:16;10.75;;;4.78;;
82159;SDS011;71734;50.876;7.372;2024-01-15T13:20:42;12.18;;;4.97;;
82159;SDS011;71734;50.876;7.372;2024-01-15T13:23:12;14.73;;;4.70;;
82159;SDS011;71734;50.876;7.372;2024-01-15T13:25:38;11.23;;;5.32;;
82159;SDS011;71734;50.876;7.372;2024-01-15T13:28:06;9.98;;;4.13;;
82159;SDS011;71734;50.876;7.372;2024-01-15T13:30:33;12.30;;;4.07;;
82159;SDS011;71734;50.876;7.372;2024-01-15T13:32:59;11.43;;;4.25;;
82159;SDS011;71734;50.876;7.372;2024-01-15T13:35:29;10.52;;;3.58;;
82159;SDS011;71734;50.876;7.372;2024-01-15T13:37:55;10.88;;;3.70;;
82159;SDS011;71734;50.876;7.372;2024-01-15T13:40:23;8.98;;;3.50;;
82159;SDS011;71734;50.876;7.372;2024-01-15T13:42:50;8.45;;;3.55;;
82159;SDS011;71734;50.876;7.372;2024-01-15T13:45:17;12.10;;;3.63;;
82159;SDS011;71734;50.876;7.372;2024-01-15T13:47:45;9.43;;;3.85;;
82159;SDS011;71734;50.876;7.372;2024-01-15T13:50:12;9.55;;;3.60;;
82159;SDS011;71734;50.876;7.372;2024-01-15T13:52:39;11.07;;;3.63;;
82159;SDS011;71734;50.876;7.372;2024-01-15T13:55:06;13.30;;;3.70;;
82159;SDS011;71734;50.876;7.372;2024-01-15T13:57:35;7.57;;;3.58;;
82159;SDS011;71734;50.876;7.372;2024-01-15T14:00:01;8.93;;;3.15;;
82159;SDS011;71734;50.876;7.372;2024-01-15T14:02:34;9.43;;;3.22;;
82159;SDS011;71734;50.876;7.372;2024-01-15T14:05:01;11.18;;;3.45;;
82159;SDS011;71734;50.876;7.372;2024-01-15T14:07:28;9.65;;;3.45;;
82159;SDS011;71734;50.876;7.372;2024-01-15T14:09:54;11.50;;;3.58;;
82159;SDS011;71734;50.876;7.372;2024-01-15T14:12:21;8.07;;;3.25;;
82159;SDS011;71734;50.876;7.372;2024-01-15T14:14:49;10.32;;;3.17;;
82159;SDS011;71734;50.876;7.372;2024-01-15T14:17:15;9.48;;;3.30;;
82159;SDS011;71734;50.876;7.372;2024-01-15T14:19:53;10.02;;;3.30;;
82159;SDS011;71734;50.876;7.372;2024-01-15T14:22:19;8.65;;;3.33;;
82159;SDS011;71734;50.876;7.372;2024-01-15T14:24:46;10.80;;;3.45;;
82159;SDS011;71734;50.876;7.372;2024-01-15T14:27:12;9.68;;;3.90;;
82159;SDS011;71734;50.876;7.372;2024-01-15T14:29:39;9.85;;;3.42;;
82159;SDS011;71734;50.876;7.372;2024-01-15T14:32:08;9.52;;;3.40;;
82159;SDS011;71734;50.876;7.372;2024-01-15T14:34:36;8.55;;;3.28;;
82159;SDS011;71734;50.876;7.372;2024-01-15T14:37:03;7.03;;;3.13;;
82159;SDS011;71734;50.876;7.372;2024-01-15T14:39:31;7.05;;;2.70;;
82159;SDS011;71734;50.876;7.372;2024-01-15T14:41:59;7.43;;;3.00;;
82159;SDS011;71734;50.876;7.372;2024-01-15T14:44:25;9.00;;;2.80;;
82159;SDS011;71734;50.876;7.372;2024-01-15T14:46:54;6.57;;;2.55;;
82159;SDS011;71734;50.876;7.372;2024-01-15T14:49:24;6.30;;;2.70;;
82159;SDS011;71734;50.876;7.372;2024-01-15T14:51:51;6.75;;;2.50;;
82159;SDS011;71734;50.876;7.372;2024-01-15T14:54:17;7.47;;;2.67;;
82159;SDS011;71734;50.876;7.372;2024-01-15T14:56:47;5.85;;;2.35;;
82159;SDS011;71734;50.876;7.372;2024-01-15T14:59:14;6.68;;;2.42;;
82159;SDS011;71734;50.876;7.372;2024-01-15T15:01:40;6.20;;;2.30;;
82159;SDS011;71734;50.876;7.372;2024-01-15T15:04:07;6.13;;;2.40;;
82159;SDS011;71734;50.876;7.372;2024-01-15T15:06:36;5.60;;;2.17;;
82159;SDS011;71734;50.876;7.372;2024-01-15T15:09:03;5.97;;;2.42;;
82159;SDS011;71734;50.876;7.372;2024-01-15T15:11:43;7.88;;;2.47;;
82159;SDS011;71734;50.876;7.372;2024-01-15T15:14:10;7.40;;;2.40;;
82159;SDS011;71734;50.876;7.372;2024-01-15T15:16:36;6.25;;;2.05;;
82159;SDS011;71734;50.876;7.372;2024-01-15T15:19:03;5.93;;;2.22;;
82159;SDS011;71734;50.876;7.372;2024-01-15T15:21:30;7.53;;;2.60;;
82159;SDS011;71734;50.876;7.372;2024-01-15T15:23:57;7.40;;;2.63;;
82159;SDS011;71734;50.876;7.372;2024-01-15T15:26:25;7.18;;;2.45;;
82159;SDS011;71734;50.876;7.372;2024-01-15T15:28:52;6.03;;;2.22;;
82159;SDS011;71734;50.876;7.372;2024-01-15T15:31:18;6.47;;;2.55;;
82159;SDS011;71734;50.876;7.372;2024-01-15T15:36:19;6.65;;;2.63;;
82159;SDS011;71734;50.876;7.372;2024-01-15T15:38:46;6.70;;;2.40;;
82159;SDS011;71734;50.876;7.372;2024-01-15T15:41:14;6.55;;;2.55;;
82159;SDS011;71734;50.876;7.372;2024-01-15T15:43:40;7.85;;;2.65;;
82159;SDS011;71734;50.876;7.372;2024-01-15T15:46:07;6.85;;;2.38;;
82159;SDS011;71734;50.876;7.372;2024-01-15T15:48:34;7.60;;;2.90;;
82159;SDS011;71734;50.876;7.372;2024-01-15T15:51:00;7.15;;;2.85;;
82159;SDS011;71734;50.876;7.372;2024-01-15T15:53:28;7.95;;;2.70;;
82159;SDS011;71734;50.876;7.372;2024-01-15T15:55:55;8.45;;;2.80;;
82159;SDS011;71734;50.876;7.372;2024-01-15T15:58:23;7.60;;;3.08;;